Time;durP1;ratioP1;P1;durP2;ratioP2;P2;SDS_P1;SDS_P2;PMS_P1;PMS_P2;Temp;Humidity;BMP_temperature;BMP_pressure;BME280_temperature;BME280_humidity;BME280_pressure;Samples;Min_cycle;Max_cycle;Signal;HPM_P1;HPM_P2
2022/11/23 00:02:03;;;;;;;;;;;22.80;99.90;;;;;;5096364;28;19916;-48
2022/11/23 00:04:29;;;;;;;;;;;22.90;99.90;;;;;;5095874;28;20291;-49
2022/11/23 00:06:54;;;;;;;;;;;22.80;99.90;;;;;;5115916;28;19908;-49
2022/11/23 00:09:20;;;;;;;;;;;22.80;99.90;;;;;;5126358;27;19912;-50
2022/11/23 00:11:45;;;;;;;;;;;22.90;99.90;;;;;;5114034;28;19957;-49
2022/11/23 00:14:11;;;;;;;;;;;22.90;99.90;;;;;;5128531;27;19908;-49
2022/11/23 00:16:36;;;;;;;;;;;22.80;99.90;;;;;;5113751;28;20010;-49
2022/11/23 00:19:02;;;;;;;;;;;22.80;99.90;;;;;;5109977;28;19911;-49
2022/11/23 00:21:29;;;;;;;;;;;22.80;99.90;;;;;;5113972;28;19915;-49
2022/11/23 00:23:54;;;;;;;;;;;22.80;99.90;;;;;;5114117;28;20313;-49
2022/11/23 00:26:20;;;;;;;;;;;22.80;99.90;;;;;;5113637;28;19916;-48
2022/11/23 00:28:45;;;;;;;;;;;22.80;99.90;;;;;;5121672;28;19947;-48
2022/11/23 00:31:12;;;;;;;;;;;22.90;99.90;;;;;;5120525;28;19915;-48
2022/11/23 00:33:38;;;;;;;;;;;22.90;99.90;;;;;;5113711;28;19911;-48
2022/11/23 00:36:05;;;;;;;;;;;22.90;99.90;;;;;;5113866;28;19930;-48
2022/11/23 00:38:31;;;;;;;;;;;22.90;99.90;;;;;;5114997;28;19948;-49
2022/11/23 00:40:57;;;;;;;;;;;22.80;99.90;;;;;;5126552;28;19998;-48
2022/11/23 00:43:23;;;;;;;;;;;22.80;99.90;;;;;;5113829;28;19908;-48
2022/11/23 00:45:49;;;;;;;;;;;22.90;99.90;;;;;;5113647;28;19914;-48
2022/11/23 00:48:15;;;;;;;;;;;22.80;99.90;;;;;;5113738;28;19908;-49
2022/11/23 00:50:41;;;;;;;;;;;22.80;99.90;;;;;;5113688;28;19911;-49
2022/11/23 00:53:06;;;;;;;;;;;22.80;99.90;;;;;;5113578;28;19907;-48
2022/11/23 00:55:32;;;;;;;;;;;22.80;99.90;;;;;;5095495;28;19944;-49
2022/11/23 00:57:57;;;;;;;;;;;22.80;99.90;;;;;;5109518;28;19922;-49
2022/11/23 01:00:23;;;;;;;;;;;22.80;99.90;;;;;;5102623;22;19925;-42
2022/11/23 01:02:49;;;;;;;;;;;22.80;99.90;;;;;;5072891;28;19996;-43
2022/11/23 01:05:14;;;;;;;;;;;22.80;99.90;;;;;;5072855;28;19908;-43
2022/11/23 01:07:40;;;;;;;;;;;22.80;99.90;;;;;;5073101;28;19915;-43
2022/11/23 01:10:07;;;;;;;;;;;22.80;99.90;;;;;;5072968;28;20315;-43
2022/11/23 01:12:32;;;;;;;;;;;22.80;99.90;;;;;;5072890;28;19913;-43
2022/11/23 01:14:58;;;;;;;;;;;22.80;99.90;;;;;;5072880;28;19908;-43
2022/11/23 01:17:23;;;;;;;;;;;22.80;99.90;;;;;;5072715;28;20007;-43
2022/11/23 01:19:49;;;;;;;;;;;22.80;99.90;;;;;;5072884;28;19961;-43
2022/11/23 01:22:15;;;;;;;;;;;22.80;99.90;;;;;;5072940;28;19909;-44
2022/11/23 01:24:40;;;;;;;;;;;22.70;99.90;;;;;;5074393;28;19909;-43
2022/11/23 01:27:06;;;;;;;;;;;22.80;99.90;;;;;;5076396;28;19915;-43
2022/11/23 01:29:31;;;;;;;;;;;22.70;99.90;;;;;;5076518;28;19912;-43
2022/11/23 01:31:57;;;;;;;;;;;22.70;99.90;;;;;;5076223;28;19912;-43
2022/11/23 01:34:22;;;;;;;;;;;22.70;99.90;;;;;;5076160;28;20007;-44
2022/11/23 01:36:48;;;;;;;;;;;22.70;99.90;;;;;;5076292;28;19916;-43
2022/11/23 01:39:14;;;;;;;;;;;22.70;99.90;;;;;;5076106;28;20280;-44
2022/11/23 01:41:40;;;;;;;;;;;22.70;99.90;;;;;;5058169;28;19951;-44
2022/11/23 01:44:22;;;;;;;;;;;22.70;99.90;;;;;;5076100;28;19909;-44
2022/11/23 01:46:48;;;;;;;;;;;22.70;99.90;;;;;;5075828;28;19909;-44
2022/11/23 01:49:13;;;;;;;;;;;22.70;99.90;;;;;;5058161;28;19958;-44
2022/11/23 01:51:40;;;;;;;;;;;22.70;99.90;;;;;;5075763;28;19952;-44
2022/11/23 01:54:35;;;;;;;;;;;22.70;99.90;;;;;;5075991;28;19908;-44
2022/11/23 01:57:04;;;;;;;;;;;22.70;99.90;;;;;;5058309;28;19986;-44
2022/11/23 01:59:32;;;;;;;;;;;22.70;99.90;;;;;;5094841;22;19932;-48
2022/11/23 02:01:58;;;;;;;;;;;22.70;99.90;;;;;;5055508;28;20348;-48
2022/11/23 02:04:28;;;;;;;;;;;22.70;99.90;;;;;;5055739;28;19909;-46
2022/11/23 02:06:54;;;;;;;;;;;22.70;99.90;;;;;;5055713;28;19989;-48
2022/11/23 02:09:21;;;;;;;;;;;22.70;99.90;;;;;;5055744;28;20006;-46
2022/11/23 02:11:47;;;;;;;;;;;22.70;99.90;;;;;;5055457;28;19944;-46
2022/11/23 02:14:12;;;;;;;;;;;22.60;99.90;;;;;;5055605;28;19913;-46
2022/11/23 02:16:39;;;;;;;;;;;22.60;99.90;;;;;;5055372;28;19917;-46
2022/11/23 02:19:07;;;;;;;;;;;22.60;99.90;;;;;;5037278;28;19909;-48
2022/11/23 02:21:33;;;;;;;;;;;22.70;99.90;;;;;;5055445;28;19909;-46
2022/11/23 02:24:16;;;;;;;;;;;22.60;99.90;;;;;;5037387;28;20284;-48
2022/11/23 02:26:42;;;;;;;;;;;22.60;99.90;;;;;;5055204;28;19916;-46
2022/11/23 02:29:17;;;;;;;;;;;22.60;99.90;;;;;;5055169;28;19952;-45
2022/11/23 02:31:42;;;;;;;;;;;22.60;99.90;;;;;;5054996;28;19920;-45
2022/11/23 02:34:08;;;;;;;;;;;22.60;99.90;;;;;;5055209;28;19909;-46
2022/11/23 02:36:34;;;;;;;;;;;22.60;99.90;;;;;;5055075;28;19921;-46
2022/11/23 02:39:00;;;;;;;;;;;22.60;99.90;;;;;;5054845;28;19909;-46
2022/11/23 02:41:26;;;;;;;;;;;22.60;99.90;;;;;;5054871;28;19908;-46
2022/11/23 02:43:53;;;;;;;;;;;22.60;99.90;;;;;;5054990;28;19916;-46
2022/11/23 02:46:19;;;;;;;;;;;22.60;99.90;;;;;;5055064;28;19974;-46
2022/11/23 02:48:44;;;;;;;;;;;22.60;99.90;;;;;;5054884;28;20361;-46
2022/11/23 02:51:10;;;;;;;;;;;22.60;99.90;;;;;;5054643;28;19999;-46
2022/11/23 02:53:35;;;;;;;;;;;22.60;99.90;;;;;;5054673;28;19977;-46
2022/11/23 02:56:01;;;;;;;;;;;22.60;99.90;;;;;;5054768;28;19912;-46
2022/11/23 02:58:27;;;;;;;;;;;22.60;99.90;;;;;;5054554;28;19917;-46
2022/11/23 03:00:52;;;;;;;;;;;22.60;99.90;;;;;;5055114;28;20284;-46
2022/11/23 03:03:18;;;;;;;;;;;22.50;99.90;;;;;;5054669;28;19909;-46
2022/11/23 03:05:43;;;;;;;;;;;22.50;99.90;;;;;;5054300;28;19919;-46
2022/11/23 03:08:09;;;;;;;;;;;22.50;99.90;;;;;;5054268;28;20324;-46
2022/11/23 03:10:34;;;;;;;;;;;22.50;99.90;;;;;;5054372;28;19909;-47
2022/11/23 03:13:00;;;;;;;;;;;22.50;99.90;;;;;;5054510;28;20381;-47
2022/11/23 03:15:27;;;;;;;;;;;22.50;99.90;;;;;;5054245;28;19909;-46
2022/11/23 03:17:52;;;;;;;;;;;22.50;99.90;;;;;;5036592;28;19990;-46
2022/11/23 03:20:18;;;;;;;;;;;22.50;99.90;;;;;;5054277;28;20393;-46
2022/11/23 03:22:44;;;;;;;;;;;22.50;99.90;;;;;;5054065;28;19908;-46
2022/11/23 03:25:09;;;;;;;;;;;22.50;99.90;;;;;;5054029;28;19908;-46
2022/11/23 03:27:36;;;;;;;;;;;22.50;99.90;;;;;;5054144;28;20254;-46
2022/11/23 03:30:02;;;;;;;;;;;22.50;99.90;;;;;;5053927;28;19916;-47
2022/11/23 03:32:28;;;;;;;;;;;22.50;99.90;;;;;;5054001;28;19908;-46
2022/11/23 03:34:53;;;;;;;;;;;22.50;99.90;;;;;;5053827;28;20297;-46
2022/11/23 03:37:19;;;;;;;;;;;22.50;99.90;;;;;;5053576;28;19917;-46
2022/11/23 03:39:44;;;;;;;;;;;22.50;99.90;;;;;;5053971;28;19913;-46
2022/11/23 03:42:10;;;;;;;;;;;22.50;99.90;;;;;;5053792;28;20377;-48
2022/11/23 03:44:35;;;;;;;;;;;22.50;99.90;;;;;;5053612;28;19916;-46
2022/11/23 03:47:01;;;;;;;;;;;22.50;99.90;;;;;;5053521;28;20015;-46
2022/11/23 03:49:27;;;;;;;;;;;22.50;99.90;;;;;;5053560;28;19908;-46
2022/11/23 03:51:52;;;;;;;;;;;22.50;99.90;;;;;;5048529;28;20373;-46
2022/11/23 03:54:18;;;;;;;;;;;22.50;99.90;;;;;;5042855;28;19913;-45
2022/11/23 03:56:43;;;;;;;;;;;22.50;99.90;;;;;;5044156;28;19921;-46
2022/11/23 03:59:09;;;;;;;;;;;22.50;99.90;;;;;;5052099;28;19967;-48
2022/11/23 04:01:35;;;;;;;;;;;22.50;99.90;;;;;;5084353;22;19924;-42
2022/11/23 04:04:01;;;;;;;;;;;22.50;99.90;;;;;;5073596;28;19919;-42
2022/11/23 04:06:26;;;;;;;;;;;22.50;99.90;;;;;;5070457;28;19943;-42
2022/11/23 04:08:52;;;;;;;;;;;22.50;99.90;;;;;;5066768;28;20278;-42
2022/11/23 04:11:17;;;;;;;;;;;22.50;99.90;;;;;;5069883;28;19997;-42
2022/11/23 04:13:43;;;;;;;;;;;22.50;99.90;;;;;;5073516;28;19909;-43
2022/11/23 04:16:09;;;;;;;;;;;22.50;99.90;;;;;;5071584;28;20215;-41
2022/11/23 04:18:34;;;;;;;;;;;22.50;99.90;;;;;;5063673;28;19917;-42
2022/11/23 04:21:00;;;;;;;;;;;22.50;99.90;;;;;;5055962;28;19913;-42
2022/11/23 04:23:25;;;;;;;;;;;22.50;99.90;;;;;;5064412;28;19908;-42
2022/11/23 04:25:51;;;;;;;;;;;22.50;99.90;;;;;;5073299;28;19913;-43
2022/11/23 04:28:16;;;;;;;;;;;22.50;99.90;;;;;;5073402;28;20327;-43
2022/11/23 04:30:42;;;;;;;;;;;22.50;99.90;;;;;;5071530;28;19908;-42
2022/11/23 04:33:08;;;;;;;;;;;22.50;99.90;;;;;;5071231;28;20313;-42
2022/11/23 04:35:34;;;;;;;;;;;22.50;99.90;;;;;;5071264;28;19915;-42
2022/11/23 04:38:01;;;;;;;;;;;22.50;99.90;;;;;;5071092;28;19917;-42
2022/11/23 04:40:27;;;;;;;;;;;22.50;99.90;;;;;;5071218;28;19946;-42
2022/11/23 04:42:53;;;;;;;;;;;22.50;99.90;;;;;;5071334;28;19915;-43
2022/11/23 04:45:18;;;;;;;;;;;22.50;99.90;;;;;;5072170;28;19909;-42
2022/11/23 04:47:44;;;;;;;;;;;22.50;99.90;;;;;;5073305;28;20308;-43
2022/11/23 04:50:10;;;;;;;;;;;22.50;99.90;;;;;;5072993;28;19962;-46
2022/11/23 04:52:35;;;;;;;;;;;22.50;99.90;;;;;;5073048;28;19915;-42
2022/11/23 04:55:01;;;;;;;;;;;22.50;99.90;;;;;;5073128;28;19912;-44
2022/11/23 04:57:26;;;;;;;;;;;22.50;99.90;;;;;;5072904;28;19923;-42
2022/11/23 04:59:52;;;;;;;;;;;22.50;99.90;;;;;;5114520;22;20306;-48
2022/11/23 05:02:17;;;;;;;;;;;22.50;99.90;;;;;;5097703;28;19923;-48
2022/11/23 05:04:43;;;;;;;;;;;22.50;99.90;;;;;;5097123;28;19915;-48
2022/11/23 05:07:09;;;;;;;;;;;22.50;99.90;;;;;;5096937;28;19916;-48
2022/11/23 05:09:34;;;;;;;;;;;22.40;99.90;;;;;;5096937;28;19908;-48
2022/11/23 05:12:00;;;;;;;;;;;22.40;99.90;;;;;;5096903;28;19976;-48
2022/11/23 05:14:25;;;;;;;;;;;22.40;99.90;;;;;;5082666;28;19915;-48
2022/11/23 05:16:51;;;;;;;;;;;22.50;99.90;;;;;;5096801;28;19916;-48
2022/11/23 05:19:17;;;;;;;;;;;22.40;99.90;;;;;;5096750;28;20432;-48
2022/11/23 05:21:42;;;;;;;;;;;22.40;99.90;;;;;;5096861;28;19908;-48
2022/11/23 05:24:08;;;;;;;;;;;22.50;99.90;;;;;;5096854;28;19909;-48
2022/11/23 05:26:33;;;;;;;;;;;22.40;99.90;;;;;;5096666;28;19998;-48
2022/11/23 05:28:59;;;;;;;;;;;22.50;99.90;;;;;;5096591;28;20264;-47
2022/11/23 05:31:24;;;;;;;;;;;22.50;99.90;;;;;;5096566;28;19916;-48
2022/11/23 05:33:50;;;;;;;;;;;22.40;99.90;;;;;;5069451;28;19905;-47
2022/11/23 05:36:16;;;;;;;;;;;22.40;99.90;;;;;;5091068;28;20364;-48
2022/11/23 05:38:41;;;;;;;;;;;22.50;99.90;;;;;;5096453;28;19938;-48
2022/11/23 05:41:07;;;;;;;;;;;22.50;99.90;;;;;;5096378;28;19953;-48
2022/11/23 05:43:32;;;;;;;;;;;22.40;99.90;;;;;;5078138;28;19908;-48
2022/11/23 05:45:59;;;;;;;;;;;22.40;99.90;;;;;;5096186;28;19958;-48
2022/11/23 05:48:25;;;;;;;;;;;22.40;99.90;;;;;;5096173;28;19908;-48
2022/11/23 05:50:50;;;;;;;;;;;22.40;99.90;;;;;;5096149;28;19965;-48
2022/11/23 05:53:16;;;;;;;;;;;22.40;99.90;;;;;;5096183;28;20443;-48
2022/11/23 05:55:41;;;;;;;;;;;22.40;99.90;;;;;;5096130;28;19954;-47
2022/11/23 05:58:07;;;;;;;;;;;22.40;99.90;;;;;;5096108;28;19916;-48
2022/11/23 06:00:32;;;;;;;;;;;22.40;99.90;;;;;;5096027;28;19920;-47
2022/11/23 06:03:01;;;;;;;;;;;22.40;99.90;;;;;;5096064;28;19908;-47
2022/11/23 06:05:27;;;;;;;;;;;22.40;99.90;;;;;;5095867;28;19912;-48
2022/11/23 06:07:53;;;;;;;;;;;22.40;99.90;;;;;;5095926;28;19909;-47
2022/11/23 06:10:19;;;;;;;;;;;22.40;99.90;;;;;;5095273;28;19908;-48
2022/11/23 06:12:44;;;;;;;;;;;22.40;99.90;;;;;;5095931;28;19908;-48
2022/11/23 06:15:10;;;;;;;;;;;22.40;99.90;;;;;;5096035;28;19912;-48
2022/11/23 06:17:36;;;;;;;;;;;22.40;99.90;;;;;;5095505;28;19923;-48
2022/11/23 06:20:02;;;;;;;;;;;22.40;99.90;;;;;;5095524;28;19908;-48
2022/11/23 06:22:28;;;;;;;;;;;22.40;99.90;;;;;;5095719;28;19991;-48
2022/11/23 06:24:53;;;;;;;;;;;22.40;99.90;;;;;;5095324;28;19944;-48
2022/11/23 06:27:19;;;;;;;;;;;22.40;99.90;;;;;;5067091;28;19995;-48
2022/11/23 06:29:45;;;;;;;;;;;22.40;99.90;;;;;;5089971;28;19953;-49
2022/11/23 06:32:11;;;;;;;;;;;22.40;99.90;;;;;;5070838;28;20261;-48
2022/11/23 06:34:37;;;;;;;;;;;22.40;99.90;;;;;;5085702;28;19962;-48
2022/11/23 06:37:02;;;;;;;;;;;22.40;99.90;;;;;;5095049;28;20015;-48
2022/11/23 06:39:28;;;;;;;;;;;22.30;99.90;;;;;;5095275;28;19908;-46
2022/11/23 06:41:54;;;;;;;;;;;22.30;99.90;;;;;;5095195;28;19908;-46
2022/11/23 06:44:19;;;;;;;;;;;22.30;99.90;;;;;;5095118;28;20261;-46
2022/11/23 06:46:45;;;;;;;;;;;22.30;99.90;;;;;;5094862;28;19908;-46
2022/11/23 06:49:10;;;;;;;;;;;22.30;99.90;;;;;;5094889;28;19920;-46
2022/11/23 06:51:36;;;;;;;;;;;22.30;99.90;;;;;;5095085;28;19908;-47
2022/11/23 06:54:01;;;;;;;;;;;22.30;99.90;;;;;;5094918;28;20283;-46
2022/11/23 06:56:27;;;;;;;;;;;22.30;99.90;;;;;;5094960;28;19908;-46
2022/11/23 06:58:53;;;;;;;;;;;22.30;99.90;;;;;;5094665;28;20003;-46
2022/11/23 07:01:18;;;;;;;;;;;22.30;99.90;;;;;;5094530;28;19921;-46
2022/11/23 07:03:44;;;;;;;;;;;22.30;99.90;;;;;;5094641;28;19954;-46
2022/11/23 07:06:09;;;;;;;;;;;22.30;99.90;;;;;;5073013;28;20003;-46
2022/11/23 07:08:38;;;;;;;;;;;22.30;99.90;;;;;;5090146;28;19912;-46
2022/11/23 07:11:05;;;;;;;;;;;22.30;99.90;;;;;;5094543;28;19908;-47
2022/11/23 07:13:31;;;;;;;;;;;22.30;99.90;;;;;;5094565;28;20344;-47
2022/11/23 07:15:57;;;;;;;;;;;22.30;99.90;;;;;;5094414;28;19955;-47
2022/11/23 07:18:23;;;;;;;;;;;22.30;99.90;;;;;;5094337;28;19971;-47
2022/11/23 07:20:49;;;;;;;;;;;22.30;99.90;;;;;;5094414;28;19908;-47
2022/11/23 07:23:15;;;;;;;;;;;22.30;99.90;;;;;;5093697;28;19909;-47
2022/11/23 07:25:40;;;;;;;;;;;22.30;99.90;;;;;;5065321;28;19959;-47
2022/11/23 07:28:06;;;;;;;;;;;22.30;99.90;;;;;;5090523;28;19908;-47
2022/11/23 07:30:33;;;;;;;;;;;22.30;99.90;;;;;;5094170;28;19915;-47
2022/11/23 07:33:00;;;;;;;;;;;22.30;99.90;;;;;;5094061;28;19939;-47
2022/11/23 07:35:25;;;;;;;;;;;22.30;99.90;;;;;;5093780;28;19919;-46
2022/11/23 07:37:51;;;;;;;;;;;22.30;99.90;;;;;;5094023;28;19916;-47
2022/11/23 07:40:16;;;;;;;;;;;22.30;99.90;;;;;;5093993;28;20424;-47
2022/11/23 07:42:42;;;;;;;;;;;22.30;99.90;;;;;;5093804;28;19915;-47
2022/11/23 07:45:08;;;;;;;;;;;22.30;99.90;;;;;;5093944;28;19908;-47
2022/11/23 07:47:33;;;;;;;;;;;22.40;99.90;;;;;;5093910;28;19915;-47
2022/11/23 07:49:59;;;;;;;;;;;22.30;99.90;;;;;;5070558;28;19908;-46
2022/11/23 07:52:24;;;;;;;;;;;22.40;99.90;;;;;;5055662;28;19919;-47
2022/11/23 07:54:50;;;;;;;;;;;22.40;99.90;;;;;;5090616;28;19912;-47
2022/11/23 07:57:16;;;;;;;;;;;22.40;99.90;;;;;;5093926;28;19916;-47
2022/11/23 07:59:41;;;;;;;;;;;22.40;99.90;;;;;;5093893;28;19960;-47
2022/11/23 08:02:12;;;;;;;;;;;22.50;99.90;;;;;;5093824;28;20021;-47
2022/11/23 08:04:37;;;;;;;;;;;22.50;99.90;;;;;;5063135;28;20387;-48
2022/11/23 08:07:03;;;;;;;;;;;22.50;99.90;;;;;;5092454;28;19908;-50
2022/11/23 08:09:28;;;;;;;;;;;22.60;99.90;;;;;;5075668;28;20264;-48
2022/11/23 08:11:54;;;;;;;;;;;22.60;99.90;;;;;;5093711;28;19915;-47
2022/11/23 08:14:20;;;;;;;;;;;22.60;99.90;;;;;;5093614;28;19943;-47
2022/11/23 08:16:49;;;;;;;;;;;22.60;99.90;;;;;;5093625;28;20029;-48
2022/11/23 08:19:15;;;;;;;;;;;22.70;99.90;;;;;;5061320;28;19908;-47
2022/11/23 08:21:41;;;;;;;;;;;22.70;99.90;;;;;;5093523;28;20371;-48
2022/11/23 08:24:06;;;;;;;;;;;22.70;99.90;;;;;;5093416;28;19908;-47
2022/11/23 08:26:32;;;;;;;;;;;22.80;99.90;;;;;;5093475;28;20402;-47
2022/11/23 08:28:58;;;;;;;;;;;22.80;99.90;;;;;;5093612;28;19939;-47
2022/11/23 08:31:23;;;;;;;;;;;22.80;99.90;;;;;;5093423;28;19995;-47
2022/11/23 08:33:49;;;;;;;;;;;22.80;99.90;;;;;;5095266;28;19962;-47
2022/11/23 08:36:14;;;;;;;;;;;22.90;99.90;;;;;;5097673;28;19915;-47
2022/11/23 08:38:40;;;;;;;;;;;22.90;99.90;;;;;;5097482;28;19923;-47
2022/11/23 08:41:06;;;;;;;;;;;22.90;99.90;;;;;;5097432;28;20353;-47
2022/11/23 08:43:31;;;;;;;;;;;23.00;99.90;;;;;;5097433;28;19909;-48
2022/11/23 08:45:57;;;;;;;;;;;23.00;99.90;;;;;;5097179;28;20342;-47
2022/11/23 08:48:23;;;;;;;;;;;23.00;99.90;;;;;;5097394;28;19915;-48
2022/11/23 08:50:49;;;;;;;;;;;23.10;99.90;;;;;;5097270;28;19912;-48
2022/11/23 08:53:15;;;;;;;;;;;23.10;99.90;;;;;;5060734;28;20042;-47
2022/11/23 08:55:41;;;;;;;;;;;23.10;99.90;;;;;;5058997;28;19915;-47
2022/11/23 08:58:07;;;;;;;;;;;23.10;99.90;;;;;;5092295;28;20307;-48
2022/11/23 09:00:32;;;;;;;;;;;23.20;99.90;;;;;;5096841;28;20019;-47
2022/11/23 09:02:58;;;;;;;;;;;23.10;99.90;;;;;;5096980;28;19951;-47
2022/11/23 09:05:25;;;;;;;;;;;23.20;99.90;;;;;;5096847;28;20387;-48
2022/11/23 09:07:50;;;;;;;;;;;23.20;99.90;;;;;;5096971;28;19909;-47
2022/11/23 09:10:16;;;;;;;;;;;23.20;99.90;;;;;;5096670;28;20003;-47
2022/11/23 09:12:41;;;;;;;;;;;23.20;99.90;;;;;;5096512;28;19961;-48
2022/11/23 09:15:07;;;;;;;;;;;23.30;99.90;;;;;;5096894;28;19909;-47
2022/11/23 09:17:33;;;;;;;;;;;23.30;99.90;;;;;;5096794;28;20402;-47
2022/11/23 09:19:58;;;;;;;;;;;23.30;99.90;;;;;;5096514;28;19915;-47
2022/11/23 09:22:25;;;;;;;;;;;23.40;99.90;;;;;;5096708;28;19912;-47
2022/11/23 09:24:51;;;;;;;;;;;23.40;99.90;;;;;;5096581;28;19942;-47
2022/11/23 09:27:17;;;;;;;;;;;23.40;99.90;;;;;;5096733;28;19908;-47
2022/11/23 09:29:42;;;;;;;;;;;23.50;99.90;;;;;;5096557;28;19908;-47
2022/11/23 09:32:08;;;;;;;;;;;23.50;99.90;;;;;;5096347;28;19915;-48
2022/11/23 09:34:33;;;;;;;;;;;23.50;99.90;;;;;;5096425;28;19931;-48
2022/11/23 09:36:59;;;;;;;;;;;23.60;99.90;;;;;;5096364;28;19916;-47
2022/11/23 09:39:25;;;;;;;;;;;23.60;99.90;;;;;;5096460;28;19954;-47
2022/11/23 09:41:53;;;;;;;;;;;23.60;99.90;;;;;;5096264;28;20303;-47
2022/11/23 09:44:37;;;;;;;;;;;23.60;99.90;;;;;;5095872;28;19909;-47
2022/11/23 09:47:21;;;;;;;;;;;23.70;99.90;;;;;;5096427;28;19912;-47
2022/11/23 09:49:56;;;;;;;;;;;23.70;99.90;;;;;;5080941;28;19908;-47
2022/11/23 09:52:23;;;;;;;;;;;23.80;99.90;;;;;;5096185;28;19919;-47
2022/11/23 09:54:50;;;;;;;;;;;23.90;99.90;;;;;;5096052;28;20315;-47
2022/11/23 09:57:18;;;;;;;;;;;23.90;99.90;;;;;;5096076;28;20065;-47
2022/11/23 09:59:49;;;;;;;;;;;23.90;99.90;;;;;;5095809;28;20425;-47
2022/11/23 10:02:19;;;;;;;;;;;24.00;99.90;;;;;;5095744;28;19912;-47
2022/11/23 10:04:45;;;;;;;;;;;24.10;99.90;;;;;;5095969;28;19919;-47
2022/11/23 10:07:16;;;;;;;;;;;24.10;99.90;;;;;;5095783;28;19909;-47
2022/11/23 10:09:56;;;;;;;;;;;24.10;99.90;;;;;;5095783;28;19969;-48
2022/11/23 10:12:40;;;;;;;;;;;24.20;99.90;;;;;;5063370;28;19909;-50
2022/11/23 10:15:14;;;;;;;;;;;24.30;99.90;;;;;;5095687;28;19969;-47
2022/11/23 10:17:58;;;;;;;;;;;24.30;99.90;;;;;;5095381;28;20249;-47
2022/11/23 10:20:37;;;;;;;;;;;24.40;99.90;;;;;;5095433;28;20368;-47
2022/11/23 10:23:06;;;;;;;;;;;24.50;99.90;;;;;;5063033;28;20284;-48
2022/11/23 10:25:38;;;;;;;;;;;24.50;99.90;;;;;;5095139;28;19943;-48
2022/11/23 10:28:10;;;;;;;;;;;24.60;99.90;;;;;;5095476;28;19912;-47
2022/11/23 10:30:37;;;;;;;;;;;24.70;99.90;;;;;;5095345;28;20252;-48
2022/11/23 10:33:21;;;;;;;;;;;24.70;99.90;;;;;;5095203;28;19915;-47
2022/11/23 10:35:46;;;;;;;;;;;24.70;99.90;;;;;;5095036;28;19961;-48
2022/11/23 10:38:15;;;;;;;;;;;24.80;99.90;;;;;;5095035;28;19916;-47
2022/11/23 10:40:59;;;;;;;;;;;24.80;99.90;;;;;;5095049;28;20010;-50
2022/11/23 10:43:27;;;;;;;;;;;24.90;99.90;;;;;;5095023;28;19914;-48
2022/11/23 10:46:12;;;;;;;;;;;24.90;99.90;;;;;;5095048;28;20280;-48
2022/11/23 10:48:38;;;;;;;;;;;25.00;99.90;;;;;;5094680;28;20368;-48
2022/11/23 10:51:20;;;;;;;;;;;25.00;99.90;;;;;;5095262;28;19908;-48
2022/11/23 10:53:51;;;;;;;;;;;25.00;99.90;;;;;;5082753;28;19982;-50
2022/11/23 10:56:17;;;;;;;;;;;25.00;99.90;;;;;;5094107;28;19916;-48
2022/11/23 10:58:44;;;;;;;;;;;25.10;99.90;;;;;;5094184;28;20325;-47
2022/11/23 11:01:12;;;;;;;;;;;25.10;99.90;;;;;;5094497;28;19920;-48
2022/11/23 11:03:38;;;;;;;;;;;25.20;99.90;;;;;;5094482;28;20356;-48
2022/11/23 11:06:04;;;;;;;;;;;25.20;99.90;;;;;;5094613;28;20011;-48
2022/11/23 11:08:31;;;;;;;;;;;25.20;99.90;;;;;;5094583;28;19944;-50
2022/11/23 11:10:58;;;;;;;;;;;25.30;99.90;;;;;;5094302;28;20329;-48
2022/11/23 11:13:24;;;;;;;;;;;25.30;99.90;;;;;;5094350;28;19908;-48
2022/11/23 11:15:54;;;;;;;;;;;25.30;99.90;;;;;;5094456;28;19915;-48
2022/11/23 11:18:20;;;;;;;;;;;25.30;99.90;;;;;;5080158;28;20379;-48
2022/11/23 11:20:46;;;;;;;;;;;25.40;99.90;;;;;;5094305;28;19951;-48
2022/11/23 11:23:19;;;;;;;;;;;25.40;99.90;;;;;;5094025;28;20276;-48
2022/11/23 11:25:46;;;;;;;;;;;25.40;99.90;;;;;;5094139;28;20280;-48
2022/11/23 11:28:24;;;;;;;;;;;25.50;99.90;;;;;;5094235;28;20388;-49
2022/11/23 11:31:08;;;;;;;;;;;25.50;99.90;;;;;;5081025;28;19961;-48
2022/11/23 11:33:43;;;;;;;;;;;25.50;99.90;;;;;;5094148;28;19916;-48
2022/11/23 11:36:12;;;;;;;;;;;25.60;99.90;;;;;;5080840;28;19908;-48
2022/11/23 11:38:39;;;;;;;;;;;25.60;99.90;;;;;;5094003;28;19916;-48
2022/11/23 11:41:06;;;;;;;;;;;25.60;99.90;;;;;;5093914;28;19909;-48
2022/11/23 11:43:38;;;;;;;;;;;25.60;99.90;;;;;;5067534;28;19909;-48
2022/11/23 11:46:14;;;;;;;;;;;25.60;99.90;;;;;;5088122;28;20029;-48
2022/11/23 11:49:00;;;;;;;;;;;25.60;99.90;;;;;;5069511;28;20007;-48
2022/11/23 11:51:31;;;;;;;;;;;25.60;99.90;;;;;;5070620;28;20011;-48
2022/11/23 11:54:15;;;;;;;;;;;25.60;99.90;;;;;;5092695;28;19966;-48
2022/11/23 11:57:02;;;;;;;;;;;25.60;99.90;;;;;;5093650;28;20431;-48
2022/11/23 11:59:30;;;;;;;;;;;25.60;99.90;;;;;;5093648;28;20393;-48
2022/11/23 12:02:14;;;;;;;;;;;25.50;99.90;;;;;;5093425;28;19924;-48
2022/11/23 12:04:53;;;;;;;;;;;25.50;99.90;;;;;;5093695;28;19915;-48
2022/11/23 12:07:28;;;;;;;;;;;25.50;99.90;;;;;;5093518;28;19916;-48
2022/11/23 12:09:59;;;;;;;;;;;25.50;99.90;;;;;;5093421;28;20029;-47
2022/11/23 12:12:24;;;;;;;;;;;25.50;99.90;;;;;;5093380;28;19908;-47
2022/11/23 12:14:50;;;;;;;;;;;25.50;99.90;;;;;;5093655;28;19931;-48
2022/11/23 12:17:16;;;;;;;;;;;25.50;99.90;;;;;;5093310;28;20295;-47
2022/11/23 12:19:50;;;;;;;;;;;25.50;99.90;;;;;;5092587;28;20200;-48
2022/11/23 12:22:18;;;;;;;;;;;25.50;99.90;;;;;;5093389;28;19912;-48
2022/11/23 12:24:53;;;;;;;;;;;25.50;99.90;;;;;;5093382;28;19999;-47
2022/11/23 12:27:39;;;;;;;;;;;25.60;99.90;;;;;;5093383;28;19912;-48
2022/11/23 12:30:19;;;;;;;;;;;25.60;99.90;;;;;;5092551;28;19908;-48
2022/11/23 12:33:03;;;;;;;;;;;25.60;99.90;;;;;;5093182;28;19948;-48
2022/11/23 12:36:04;;;;;;;;;;;25.60;99.90;;;;;;5093194;28;19912;-48
2022/11/23 12:38:47;;;;;;;;;;;25.60;99.90;;;;;;4991565;28;19918;-47
2022/11/23 12:41:19;;;;;;;;;;;25.60;99.90;;;;;;5084195;28;19920;-48
2022/11/23 12:44:17;;;;;;;;;;;25.60;99.90;;;;;;5093145;28;19909;-48
2022/11/23 12:46:49;;;;;;;;;;;25.60;99.90;;;;;;5037545;28;20442;-48
2022/11/23 12:49:20;;;;;;;;;;;25.60;99.90;;;;;;5093190;28;19908;-48
2022/11/23 12:52:01;;;;;;;;;;;25.60;99.90;;;;;;5092855;28;19908;-48
2022/11/23 12:54:33;;;;;;;;;;;25.60;99.90;;;;;;5092917;28;19958;-48
2022/11/23 12:57:05;;;;;;;;;;;25.60;99.90;;;;;;5092771;28;19969;-47
2022/11/23 12:59:38;;;;;;;;;;;25.50;99.90;;;;;;5092868;28;20386;-47
2022/11/23 13:02:09;;;;;;;;;;;25.50;99.90;;;;;;5068571;28;19917;-48
2022/11/23 13:04:34;;;;;;;;;;;25.50;99.90;;;;;;5085740;28;19915;-48
2022/11/23 13:07:22;;;;;;;;;;;25.50;99.90;;;;;;5093145;28;20280;-48
2022/11/23 13:09:48;;;;;;;;;;;25.50;99.90;;;;;;5092937;28;20290;-48
2022/11/23 13:12:25;;;;;;;;;;;25.50;99.90;;;;;;5092778;28;19908;-48
2022/11/23 13:15:18;;;;;;;;;;;25.50;99.90;;;;;;5092851;28;19908;-48
2022/11/23 13:17:43;;;;;;;;;;;25.40;99.90;;;;;;5092748;28;19960;-47
2022/11/23 13:20:13;;;;;;;;;;;25.40;99.90;;;;;;5093740;28;19908;-48
2022/11/23 13:22:43;;;;;;;;;;;25.40;99.90;;;;;;5096822;28;19915;-48
2022/11/23 13:25:11;;;;;;;;;;;25.40;99.90;;;;;;5096804;28;19908;-48
2022/11/23 13:27:40;;;;;;;;;;;25.40;99.90;;;;;;5096350;28;19909;-47
2022/11/23 13:30:07;;;;;;;;;;;25.40;99.90;;;;;;5059038;28;19916;-47
2022/11/23 13:32:33;;;;;;;;;;;25.40;99.90;;;;;;5087776;28;19915;-47
2022/11/23 13:34:58;;;;;;;;;;;25.40;99.90;;;;;;5096461;28;19908;-47
2022/11/23 13:37:24;;;;;;;;;;;25.40;99.90;;;;;;5096298;28;19963;-47
2022/11/23 13:39:49;;;;;;;;;;;25.40;99.90;;;;;;5096235;28;19908;-47
2022/11/23 13:42:15;;;;;;;;;;;25.40;99.90;;;;;;5096309;28;19918;-46
2022/11/23 13:44:41;;;;;;;;;;;25.40;99.90;;;;;;5065195;28;19914;-47
2022/11/23 13:47:15;;;;;;;;;;;25.40;99.90;;;;;;5092731;28;19916;-47
2022/11/23 13:49:51;;;;;;;;;;;25.40;99.90;;;;;;5096111;28;20007;-47
2022/11/23 13:52:17;;;;;;;;;;;25.40;99.90;;;;;;5096081;28;19908;-47
2022/11/23 13:54:52;;;;;;;;;;;25.40;99.90;;;;;;5095982;28;19915;-47
2022/11/23 13:57:18;;;;;;;;;;;25.40;99.90;;;;;;5095981;28;19919;-47
2022/11/23 13:59:43;;;;;;;;;;;25.40;99.90;;;;;;5095822;28;19908;-48
2022/11/23 14:02:09;;;;;;;;;;;25.40;99.90;;;;;;5095511;28;20372;-48
2022/11/23 14:04:42;;;;;;;;;;;25.40;99.90;;;;;;5095671;28;19915;-48
2022/11/23 14:07:07;;;;;;;;;;;25.50;99.90;;;;;;5095590;28;19952;-48
2022/11/23 14:09:36;;;;;;;;;;;25.50;99.90;;;;;;5067963;28;19999;-47
2022/11/23 14:12:11;;;;;;;;;;;25.40;99.90;;;;;;5089733;28;19908;-47
2022/11/23 14:14:42;;;;;;;;;;;25.40;99.90;;;;;;5095495;28;19912;-48
2022/11/23 14:17:19;;;;;;;;;;;25.40;99.90;;;;;;5095552;28;20348;-48
2022/11/23 14:20:03;;;;;;;;;;;25.40;99.90;;;;;;5092051;28;20388;-47
2022/11/23 14:22:35;;;;;;;;;;;25.50;99.90;;;;;;5082197;28;20276;-48